sensor_id;sensor_type;location;lat;lon;timestamp;P1;durP1;ratioP1;P2;durP2;ratioP2
73823;SDS011;62154;54.914;73.444;2023-12-28T00:01:25;6.82;;;2.60;;
73823;SDS011;62154;54.914;73.444;2023-12-28T00:03:52;2.88;;;2.35;;
73823;SDS011;62154;54.914;73.444;2023-12-28T00:06:19;3.35;;;2.10;;
73823;SDS011;62154;54.914;73.444;2023-12-28T00:08:47;8.68;;;2.90;;
73823;SDS011;62154;54.914;73.444;2023-12-28T00:11:15;7.28;;;3.47;;
73823;SDS011;62154;54.914;73.444;2023-12-28T00:13:43;6.00;;;3.30;;
73823;SDS011;62154;54.914;73.444;2023-12-28T00:16:10;6.30;;;3.67;;
73823;SDS011;62154;54.914;73.444;2023-12-28T00:18:38;7.57;;;3.53;;
73823;SDS011;62154;54.914;73.444;2023-12-28T00:21:06;7.68;;;3.40;;
73823;SDS011;62154;54.914;73.444;2023-12-28T00:23:33;4.72;;;2.55;;
73823;SDS011;62154;54.914;73.444;2023-12-28T00:26:01;4.82;;;2.95;;
73823;SDS011;62154;54.914;73.444;2023-12-28T00:28:28;4.82;;;3.30;;
73823;SDS011;62154;54.914;73.444;2023-12-28T00:30:55;7.90;;;2.88;;
73823;SDS011;62154;54.914;73.444;2023-12-28T00:33:23;8.82;;;3.75;;
73823;SDS011;62154;54.914;73.444;2023-12-28T00:35:50;8.02;;;3.95;;
73823;SDS011;62154;54.914;73.444;2023-12-28T00:38:18;8.93;;;3.90;;
73823;SDS011;62154;54.914;73.444;2023-12-28T00:40:45;12.30;;;4.47;;
73823;SDS011;62154;54.914;73.444;2023-12-28T00:43:13;9.07;;;4.45;;
73823;SDS011;62154;54.914;73.444;2023-12-28T00:45:40;8.00;;;3.88;;
73823;SDS011;62154;54.914;73.444;2023-12-28T00:48:09;10.15;;;4.25;;
73823;SDS011;62154;54.914;73.444;2023-12-28T00:50:37;7.28;;;3.60;;
73823;SDS011;62154;54.914;73.444;2023-12-28T00:53:04;8.73;;;4.50;;
73823;SDS011;62154;54.914;73.444;2023-12-28T00:55:32;8.15;;;2.60;;
73823;SDS011;62154;54.914;73.444;2023-12-28T00:57:59;5.45;;;2.40;;
73823;SDS011;62154;54.914;73.444;2023-12-28T01:00:27;16.58;;;5.82;;
73823;SDS011;62154;54.914;73.444;2023-12-28T01:02:55;9.75;;;3.05;;
73823;SDS011;62154;54.914;73.444;2023-12-28T01:05:23;6.32;;;3.63;;
73823;SDS011;62154;54.914;73.444;2023-12-28T01:07:52;10.85;;;3.95;;
73823;SDS011;62154;54.914;73.444;2023-12-28T01:10:20;15.50;;;6.72;;
73823;SDS011;62154;54.914;73.444;2023-12-28T01:12:48;10.23;;;4.15;;
73823;SDS011;62154;54.914;73.444;2023-12-28T01:15:16;6.15;;;3.40;;
73823;SDS011;62154;54.914;73.444;2023-12-28T01:17:47;7.95;;;3.60;;
73823;SDS011;62154;54.914;73.444;2023-12-28T01:20:14;10.27;;;4.80;;
73823;SDS011;62154;54.914;73.444;2023-12-28T01:22:42;10.50;;;4.05;;
73823;SDS011;62154;54.914;73.444;2023-12-28T01:25:09;11.50;;;5.00;;
73823;SDS011;62154;54.914;73.444;2023-12-28T01:27:37;16.95;;;7.13;;
73823;SDS011;62154;54.914;73.444;2023-12-28T01:30:05;9.75;;;4.78;;
73823;SDS011;62154;54.914;73.444;2023-12-28T01:32:33;14.63;;;5.15;;
73823;SDS011;62154;54.914;73.444;2023-12-28T01:35:01;7.82;;;3.78;;
73823;SDS011;62154;54.914;73.444;2023-12-28T01:37:30;8.90;;;3.63;;
73823;SDS011;62154;54.914;73.444;2023-12-28T01:40:00;8.63;;;4.22;;
73823;SDS011;62154;54.914;73.444;2023-12-28T01:42:29;13.15;;;5.40;;
73823;SDS011;62154;54.914;73.444;2023-12-28T01:44:58;9.82;;;3.80;;
73823;SDS011;62154;54.914;73.444;2023-12-28T01:47:30;11.96;;;4.71;;
73823;SDS011;62154;54.914;73.444;2023-12-28T01:49:59;8.45;;;4.47;;
73823;SDS011;62154;54.914;73.444;2023-12-28T01:52:27;15.43;;;7.28;;
73823;SDS011;62154;54.914;73.444;2023-12-28T01:54:57;17.85;;;8.85;;
73823;SDS011;62154;54.914;73.444;2023-12-28T01:57:25;18.45;;;8.02;;
73823;SDS011;62154;54.914;73.444;2023-12-28T01:59:53;26.63;;;11.68;;
73823;SDS011;62154;54.914;73.444;2023-12-28T02:02:22;19.50;;;7.35;;
73823;SDS011;62154;54.914;73.444;2023-12-28T02:04:50;17.67;;;7.40;;
73823;SDS011;62154;54.914;73.444;2023-12-28T02:07:17;15.50;;;6.15;;
73823;SDS011;62154;54.914;73.444;2023-12-28T02:09:47;21.10;;;9.43;;
73823;SDS011;62154;54.914;73.444;2023-12-28T02:12:14;33.80;;;14.85;;
73823;SDS011;62154;54.914;73.444;2023-12-28T02:14:42;26.35;;;10.57;;
73823;SDS011;62154;54.914;73.444;2023-12-28T02:17:13;22.20;;;10.98;;
73823;SDS011;62154;54.914;73.444;2023-12-28T02:19:53;24.25;;;10.52;;
73823;SDS011;62154;54.914;73.444;2023-12-28T02:22:23;20.92;;;10.30;;
73823;SDS011;62154;54.914;73.444;2023-12-28T02:27:44;96.47;;;36.17;;
73823;SDS011;62154;54.914;73.444;2023-12-28T02:30:14;138.73;;;54.63;;
73823;SDS011;62154;54.914;73.444;2023-12-28T02:36:04;134.25;;;49.65;;
73823;SDS011;62154;54.914;73.444;2023-12-28T02:38:38;74.88;;;32.38;;
73823;SDS011;62154;54.914;73.444;2023-12-28T02:41:07;74.95;;;31.60;;
73823;SDS011;62154;54.914;73.444;2023-12-28T02:43:35;136.75;;;55.58;;
73823;SDS011;62154;54.914;73.444;2023-12-28T02:46:03;118.03;;;50.33;;
73823;SDS011;62154;54.914;73.444;2023-12-28T02:48:30;26.58;;;12.45;;
73823;SDS011;62154;54.914;73.444;2023-12-28T02:50:58;27.42;;;9.88;;
73823;SDS011;62154;54.914;73.444;2023-12-28T02:53:25;23.23;;;8.95;;
73823;SDS011;62154;54.914;73.444;2023-12-28T02:55:53;22.73;;;10.10;;
73823;SDS011;62154;54.914;73.444;2023-12-28T02:58:20;21.87;;;7.33;;
73823;SDS011;62154;54.914;73.444;2023-12-28T03:00:48;14.65;;;6.45;;
73823;SDS011;62154;54.914;73.444;2023-12-28T03:03:16;16.42;;;6.97;;
73823;SDS011;62154;54.914;73.444;2023-12-28T03:05:44;21.35;;;8.77;;
73823;SDS011;62154;54.914;73.444;2023-12-28T03:08:15;22.84;;;9.69;;
73823;SDS011;62154;54.914;73.444;2023-12-28T03:10:43;17.73;;;6.90;;
73823;SDS011;62154;54.914;73.444;2023-12-28T03:13:10;18.50;;;7.13;;
73823;SDS011;62154;54.914;73.444;2023-12-28T03:15:38;12.73;;;5.63;;
73823;SDS011;62154;54.914;73.444;2023-12-28T03:18:06;11.88;;;5.85;;
73823;SDS011;62154;54.914;73.444;2023-12-28T03:20:35;14.30;;;7.65;;
73823;SDS011;62154;54.914;73.444;2023-12-28T03:23:02;18.08;;;9.00;;
73823;SDS011;62154;54.914;73.444;2023-12-28T03:25:30;16.15;;;9.23;;
73823;SDS011;62154;54.914;73.444;2023-12-28T03:27:57;8.98;;;5.05;;
73823;SDS011;62154;54.914;73.444;2023-12-28T03:30:24;10.95;;;5.30;;
73823;SDS011;62154;54.914;73.444;2023-12-28T03:32:52;9.13;;;4.68;;
73823;SDS011;62154;54.914;73.444;2023-12-28T03:35:19;7.82;;;4.68;;
73823;SDS011;62154;54.914;73.444;2023-12-28T03:37:47;7.88;;;4.63;;
73823;SDS011;62154;54.914;73.444;2023-12-28T03:40:14;18.63;;;9.77;;
73823;SDS011;62154;54.914;73.444;2023-12-28T03:42:42;30.77;;;13.63;;
73823;SDS011;62154;54.914;73.444;2023-12-28T03:45:11;13.18;;;6.78;;
73823;SDS011;62154;54.914;73.444;2023-12-28T03:47:38;10.77;;;6.75;;
73823;SDS011;62154;54.914;73.444;2023-12-28T03:50:05;11.18;;;7.07;;
73823;SDS011;62154;54.914;73.444;2023-12-28T03:52:34;15.27;;;7.82;;
73823;SDS011;62154;54.914;73.444;2023-12-28T03:55:02;13.45;;;6.50;;
73823;SDS011;62154;54.914;73.444;2023-12-28T03:57:29;13.30;;;6.40;;
73823;SDS011;62154;54.914;73.444;2023-12-28T03:59:57;13.57;;;7.32;;
73823;SDS011;62154;54.914;73.444;2023-12-28T04:02:24;12.93;;;5.68;;
73823;SDS011;62154;54.914;73.444;2023-12-28T04:04:54;10.57;;;4.82;;
73823;SDS011;62154;54.914;73.444;2023-12-28T04:07:22;28.38;;;8.20;;
73823;SDS011;62154;54.914;73.444;2023-12-28T04:09:49;31.48;;;10.70;;
73823;SDS011;62154;54.914;73.444;2023-12-28T04:12:17;17.10;;;9.05;;
73823;SDS011;62154;54.914;73.444;2023-12-28T04:14:44;19.50;;;7.95;;
73823;SDS011;62154;54.914;73.444;2023-12-28T04:17:12;10.40;;;5.47;;
73823;SDS011;62154;54.914;73.444;2023-12-28T04:19:42;10.68;;;5.28;;
73823;SDS011;62154;54.914;73.444;2023-12-28T04:22:10;18.27;;;7.50;;
73823;SDS011;62154;54.914;73.444;2023-12-28T04:24:37;20.13;;;7.75;;
73823;SDS011;62154;54.914;73.444;2023-12-28T04:27:05;27.67;;;9.85;;
73823;SDS011;62154;54.914;73.444;2023-12-28T04:29:32;15.23;;;6.43;;
73823;SDS011;62154;54.914;73.444;2023-12-28T04:32:02;18.90;;;7.57;;
73823;SDS011;62154;54.914;73.444;2023-12-28T04:34:33;11.70;;;6.47;;
73823;SDS011;62154;54.914;73.444;2023-12-28T04:37:02;9.73;;;4.85;;
73823;SDS011;62154;54.914;73.444;2023-12-28T04:39:30;14.18;;;5.70;;
73823;SDS011;62154;54.914;73.444;2023-12-28T04:41:58;8.70;;;4.57;;
73823;SDS011;62154;54.914;73.444;2023-12-28T04:44:25;12.93;;;5.93;;
73823;SDS011;62154;54.914;73.444;2023-12-28T04:46:52;12.18;;;5.78;;
73823;SDS011;62154;54.914;73.444;2023-12-28T04:49:20;13.30;;;6.13;;
73823;SDS011;62154;54.914;73.444;2023-12-28T04:51:48;70.85;;;26.95;;
73823;SDS011;62154;54.914;73.444;2023-12-28T04:54:16;103.40;;;38.28;;
73823;SDS011;62154;54.914;73.444;2023-12-28T04:56:43;73.18;;;28.63;;
73823;SDS011;62154;54.914;73.444;2023-12-28T04:59:15;253.36;;;86.51;;
73823;SDS011;62154;54.914;73.444;2023-12-28T05:01:43;112.75;;;39.13;;
73823;SDS011;62154;54.914;73.444;2023-12-28T05:04:11;116.28;;;46.67;;
73823;SDS011;62154;54.914;73.444;2023-12-28T05:06:41;126.57;;;52.13;;
73823;SDS011;62154;54.914;73.444;2023-12-28T05:09:08;148.05;;;65.20;;
73823;SDS011;62154;54.914;73.444;2023-12-28T05:11:36;112.13;;;41.95;;
73823;SDS011;62154;54.914;73.444;2023-12-28T05:14:04;240.38;;;79.35;;
73823;SDS011;62154;54.914;73.444;2023-12-28T05:16:32;377.85;;;128.60;;
73823;SDS011;62154;54.914;73.444;2023-12-28T05:18:59;118.30;;;37.75;;
73823;SDS011;62154;54.914;73.444;2023-12-28T05:21:27;131.00;;;46.10;;
73823;SDS011;62154;54.914;73.444;2023-12-28T05:23:54;79.00;;;30.88;;
73823;SDS011;62154;54.914;73.444;2023-12-28T05:26:21;150.07;;;70.53;;
73823;SDS011;62154;54.914;73.444;2023-12-28T05:28:50;36.00;;;18.88;;
73823;SDS011;62154;54.914;73.444;2023-12-28T05:31:18;65.60;;;24.08;;
73823;SDS011;62154;54.914;73.444;2023-12-28T05:33:45;29.85;;;11.77;;
73823;SDS011;62154;54.914;73.444;2023-12-28T05:36:13;43.42;;;17.63;;
73823;SDS011;62154;54.914;73.444;2023-12-28T05:38:40;51.10;;;15.50;;
73823;SDS011;62154;54.914;73.444;2023-12-28T05:41:11;28.95;;;9.15;;
73823;SDS011;62154;54.914;73.444;2023-12-28T05:43:38;25.75;;;9.10;;
73823;SDS011;62154;54.914;73.444;2023-12-28T05:46:06;26.67;;;10.48;;
73823;SDS011;62154;54.914;73.444;2023-12-28T05:48:33;30.33;;;10.82;;
73823;SDS011;62154;54.914;73.444;2023-12-28T05:51:01;46.20;;;13.98;;
73823;SDS011;62154;54.914;73.444;2023-12-28T05:53:29;54.10;;;18.92;;
73823;SDS011;62154;54.914;73.444;2023-12-28T05:55:56;21.42;;;7.75;;
73823;SDS011;62154;54.914;73.444;2023-12-28T05:58:29;16.20;;;6.75;;
73823;SDS011;62154;54.914;73.444;2023-12-28T06:00:57;25.70;;;10.70;;
73823;SDS011;62154;54.914;73.444;2023-12-28T06:03:25;11.43;;;5.00;;
73823;SDS011;62154;54.914;73.444;2023-12-28T06:05:54;15.45;;;5.85;;
73823;SDS011;62154;54.914;73.444;2023-12-28T06:08:22;31.50;;;11.77;;
73823;SDS011;62154;54.914;73.444;2023-12-28T06:10:50;19.90;;;11.00;;
73823;SDS011;62154;54.914;73.444;2023-12-28T06:13:17;31.38;;;11.35;;
73823;SDS011;62154;54.914;73.444;2023-12-28T06:15:45;28.42;;;10.30;;
73823;SDS011;62154;54.914;73.444;2023-12-28T06:18:12;28.17;;;11.07;;
73823;SDS011;62154;54.914;73.444;2023-12-28T06:20:40;39.45;;;12.52;;
73823;SDS011;62154;54.914;73.444;2023-12-28T06:23:08;12.70;;;4.55;;
73823;SDS011;62154;54.914;73.444;2023-12-28T06:25:35;28.50;;;10.15;;
73823;SDS011;62154;54.914;73.444;2023-12-28T06:28:03;15.15;;;6.18;;
73823;SDS011;62154;54.914;73.444;2023-12-28T06:30:30;17.58;;;7.15;;
73823;SDS011;62154;54.914;73.444;2023-12-28T06:32:58;48.90;;;15.90;;
73823;SDS011;62154;54.914;73.444;2023-12-28T06:35:25;9.65;;;4.53;;
73823;SDS011;62154;54.914;73.444;2023-12-28T06:37:53;19.13;;;8.23;;
73823;SDS011;62154;54.914;73.444;2023-12-28T06:40:20;41.17;;;15.50;;
73823;SDS011;62154;54.914;73.444;2023-12-28T06:42:48;19.85;;;8.50;;
73823;SDS011;62154;54.914;73.444;2023-12-28T06:45:15;38.42;;;15.63;;
73823;SDS011;62154;54.914;73.444;2023-12-28T06:47:43;22.05;;;7.88;;
73823;SDS011;62154;54.914;73.444;2023-12-28T06:50:15;10.54;;;5.20;;
73823;SDS011;62154;54.914;73.444;2023-12-28T06:52:43;21.60;;;10.15;;
73823;SDS011;62154;54.914;73.444;2023-12-28T06:55:10;19.85;;;8.50;;
73823;SDS011;62154;54.914;73.444;2023-12-28T06:57:38;106.53;;;37.35;;
73823;SDS011;62154;54.914;73.444;2023-12-28T07:00:05;24.38;;;11.50;;
73823;SDS011;62154;54.914;73.444;2023-12-28T07:02:34;27.73;;;14.63;;
73823;SDS011;62154;54.914;73.444;2023-12-28T07:05:01;16.13;;;9.27;;
73823;SDS011;62154;54.914;73.444;2023-12-28T07:07:31;17.80;;;9.98;;
73823;SDS011;62154;54.914;73.444;2023-12-28T07:09:58;18.90;;;10.82;;
73823;SDS011;62154;54.914;73.444;2023-12-28T07:12:26;16.35;;;9.02;;
73823;SDS011;62154;54.914;73.444;2023-12-28T07:14:54;36.63;;;16.95;;
73823;SDS011;62154;54.914;73.444;2023-12-28T07:17:21;16.80;;;7.55;;
73823;SDS011;62154;54.914;73.444;2023-12-28T07:19:48;12.77;;;5.90;;
73823;SDS011;62154;54.914;73.444;2023-12-28T07:22:28;9.82;;;5.72;;
73823;SDS011;62154;54.914;73.444;2023-12-28T07:24:56;15.88;;;8.27;;
73823;SDS011;62154;54.914;73.444;2023-12-28T07:27:23;18.50;;;8.55;;
73823;SDS011;62154;54.914;73.444;2023-12-28T07:29:51;15.32;;;7.32;;
73823;SDS011;62154;54.914;73.444;2023-12-28T07:32:18;11.38;;;6.20;;
73823;SDS011;62154;54.914;73.444;2023-12-28T07:34:46;21.38;;;10.52;;
73823;SDS011;62154;54.914;73.444;2023-12-28T07:37:14;38.33;;;20.02;;
73823;SDS011;62154;54.914;73.444;2023-12-28T07:39:42;20.83;;;10.30;;
73823;SDS011;62154;54.914;73.444;2023-12-28T07:42:10;21.42;;;9.40;;
73823;SDS011;62154;54.914;73.444;2023-12-28T07:44:37;19.70;;;9.65;;
73823;SDS011;62154;54.914;73.444;2023-12-28T07:47:05;12.68;;;6.40;;
73823;SDS011;62154;54.914;73.444;2023-12-28T07:49:32;13.55;;;6.68;;
73823;SDS011;62154;54.914;73.444;2023-12-28T07:52:00;13.82;;;6.65;;
73823;SDS011;62154;54.914;73.444;2023-12-28T07:54:27;21.00;;;8.35;;
73823;SDS011;62154;54.914;73.444;2023-12-28T07:56:54;16.70;;;7.05;;
73823;SDS011;62154;54.914;73.444;2023-12-28T07:59:22;23.25;;;9.88;;
73823;SDS011;62154;54.914;73.444;2023-12-28T08:01:50;13.68;;;6.57;;
73823;SDS011;62154;54.914;73.444;2023-12-28T08:04:17;15.85;;;6.35;;
73823;SDS011;62154;54.914;73.444;2023-12-28T08:06:44;14.60;;;7.10;;
73823;SDS011;62154;54.914;73.444;2023-12-28T08:09:12;13.52;;;6.38;;
73823;SDS011;62154;54.914;73.444;2023-12-28T08:11:39;16.77;;;7.13;;
73823;SDS011;62154;54.914;73.444;2023-12-28T08:14:10;14.80;;;6.60;;
73823;SDS011;62154;54.914;73.444;2023-12-28T08:16:38;27.95;;;11.43;;
73823;SDS011;62154;54.914;73.444;2023-12-28T08:19:05;24.38;;;10.20;;
73823;SDS011;62154;54.914;73.444;2023-12-28T08:21:32;30.70;;;15.00;;
73823;SDS011;62154;54.914;73.444;2023-12-28T08:24:00;12.52;;;7.35;;
73823;SDS011;62154;54.914;73.444;2023-12-28T08:26:27;14.25;;;7.50;;
73823;SDS011;62154;54.914;73.444;2023-12-28T08:28:55;13.27;;;5.50;;
73823;SDS011;62154;54.914;73.444;2023-12-28T08:31:22;18.92;;;11.45;;
73823;SDS011;62154;54.914;73.444;2023-12-28T08:33:52;24.58;;;14.02;;
73823;SDS011;62154;54.914;73.444;2023-12-28T08:36:21;18.45;;;10.63;;
73823;SDS011;62154;54.914;73.444;2023-12-28T08:38:49;11.52;;;8.82;;
73823;SDS011;62154;54.914;73.444;2023-12-28T08:41:20;6.25;;;4.58;;
73823;SDS011;62154;54.914;73.444;2023-12-28T08:43:50;13.10;;;6.60;;
73823;SDS011;62154;54.914;73.444;2023-12-28T08:46:20;27.48;;;18.35;;
73823;SDS011;62154;54.914;73.444;2023-12-28T08:48:52;13.40;;;7.75;;
73823;SDS011;62154;54.914;73.444;2023-12-28T08:51:21;10.38;;;5.64;;
73823;SDS011;62154;54.914;73.444;2023-12-28T08:53:51;9.75;;;5.20;;
73823;SDS011;62154;54.914;73.444;2023-12-28T08:56:21;10.50;;;5.28;;
73823;SDS011;62154;54.914;73.444;2023-12-28T08:58:49;7.30;;;3.97;;
73823;SDS011;62154;54.914;73.444;2023-12-28T09:01:22;9.65;;;3.70;;
73823;SDS011;62154;54.914;73.444;2023-12-28T09:03:52;9.95;;;3.97;;
73823;SDS011;62154;54.914;73.444;2023-12-28T09:06:20;8.45;;;4.50;;
73823;SDS011;62154;54.914;73.444;2023-12-28T09:08:49;11.82;;;5.90;;
73823;SDS011;62154;54.914;73.444;2023-12-28T09:11:18;13.25;;;6.57;;
73823;SDS011;62154;54.914;73.444;2023-12-28T09:13:46;21.52;;;10.25;;
73823;SDS011;62154;54.914;73.444;2023-12-28T09:16:14;16.02;;;8.13;;
73823;SDS011;62154;54.914;73.444;2023-12-28T09:18:54;11.90;;;5.88;;
73823;SDS011;62154;54.914;73.444;2023-12-28T09:21:22;6.13;;;4.00;;
73823;SDS011;62154;54.914;73.444;2023-12-28T09:23:49;10.10;;;5.53;;
73823;SDS011;62154;54.914;73.444;2023-12-28T09:26:17;10.68;;;5.13;;
73823;SDS011;62154;54.914;73.444;2023-12-28T09:28:44;4.47;;;3.05;;
73823;SDS011;62154;54.914;73.444;2023-12-28T09:31:12;6.72;;;3.85;;
73823;SDS011;62154;54.914;73.444;2023-12-28T09:33:39;6.18;;;3.50;;
73823;SDS011;62154;54.914;73.444;2023-12-28T09:36:09;5.35;;;3.45;;
73823;SDS011;62154;54.914;73.444;2023-12-28T09:38:39;3.85;;;2.60;;
73823;SDS011;62154;54.914;73.444;2023-12-28T09:41:13;3.95;;;2.60;;
73823;SDS011;62154;54.914;73.444;2023-12-28T09:44:27;7.30;;;3.53;;
73823;SDS011;62154;54.914;73.444;2023-12-28T09:46:42;29.15;;;11.30;;
73823;SDS011;62154;54.914;73.444;2023-12-28T09:49:13;17.88;;;7.70;;
73823;SDS011;62154;54.914;73.444;2023-12-28T09:51:45;41.20;;;14.18;;
73823;SDS011;62154;54.914;73.444;2023-12-28T09:54:13;20.30;;;9.02;;
73823;SDS011;62154;54.914;73.444;2023-12-28T09:56:40;16.33;;;7.80;;
73823;SDS011;62154;54.914;73.444;2023-12-28T09:59:08;15.10;;;7.95;;
73823;SDS011;62154;54.914;73.444;2023-12-28T10:01:36;13.75;;;7.45;;
73823;SDS011;62154;54.914;73.444;2023-12-28T10:04:04;15.02;;;8.50;;
73823;SDS011;62154;54.914;73.444;2023-12-28T10:06:31;8.60;;;4.40;;
73823;SDS011;62154;54.914;73.444;2023-12-28T10:08:58;11.82;;;5.30;;
73823;SDS011;62154;54.914;73.444;2023-12-28T10:11:26;7.88;;;4.32;;
73823;SDS011;62154;54.914;73.444;2023-12-28T10:13:53;9.25;;;5.18;;
73823;SDS011;62154;54.914;73.444;2023-12-28T10:16:21;10.48;;;5.32;;
73823;SDS011;62154;54.914;73.444;2023-12-28T10:18:49;11.60;;;6.40;;
73823;SDS011;62154;54.914;73.444;2023-12-28T10:21:16;9.18;;;4.70;;
73823;SDS011;62154;54.914;73.444;2023-12-28T10:23:43;21.63;;;11.10;;
73823;SDS011;62154;54.914;73.444;2023-12-28T10:26:11;8.60;;;5.13;;
73823;SDS011;62154;54.914;73.444;2023-12-28T10:28:39;10.18;;;3.10;;
73823;SDS011;62154;54.914;73.444;2023-12-28T10:31:09;6.68;;;3.50;;
73823;SDS011;62154;54.914;73.444;2023-12-28T10:33:37;5.60;;;3.05;;
73823;SDS011;62154;54.914;73.444;2023-12-28T10:36:05;5.68;;;3.25;;
73823;SDS011;62154;54.914;73.444;2023-12-28T10:38:37;6.40;;;3.78;;
73823;SDS011;62154;54.914;73.444;2023-12-28T10:41:08;4.28;;;3.10;;
73823;SDS011;62154;54.914;73.444;2023-12-28T10:43:46;5.90;;;3.65;;
73823;SDS011;62154;54.914;73.444;2023-12-28T10:46:27;11.45;;;5.97;;
73823;SDS011;62154;54.914;73.444;2023-12-28T10:49:20;12.27;;;6.90;;
73823;SDS011;62154;54.914;73.444;2023-12-28T10:51:49;10.27;;;6.03;;
73823;SDS011;62154;54.914;73.444;2023-12-28T10:54:34;5.90;;;3.40;;
73823;SDS011;62154;54.914;73.444;2023-12-28T10:57:19;6.00;;;3.80;;
73823;SDS011;62154;54.914;73.444;2023-12-28T11:02:26;7.60;;;5.13;;
73823;SDS011;62154;54.914;73.444;2023-12-28T11:04:55;7.15;;;4.43;;
73823;SDS011;62154;54.914;73.444;2023-12-28T11:07:23;7.10;;;4.47;;
73823;SDS011;62154;54.914;73.444;2023-12-28T11:10:00;31.33;;;14.23;;
73823;SDS011;62154;54.914;73.444;2023-12-28T11:12:29;12.80;;;6.45;;
73823;SDS011;62154;54.914;73.444;2023-12-28T11:14:58;23.10;;;11.70;;
73823;SDS011;62154;54.914;73.444;2023-12-28T11:17:26;50.05;;;27.00;;
73823;SDS011;62154;54.914;73.444;2023-12-28T11:19:57;42.97;;;23.60;;
73823;SDS011;62154;54.914;73.444;2023-12-28T11:22:28;47.92;;;20.88;;
73823;SDS011;62154;54.914;73.444;2023-12-28T11:24:59;29.83;;;12.45;;
73823;SDS011;62154;54.914;73.444;2023-12-28T11:27:36;19.58;;;11.60;;
73823;SDS011;62154;54.914;73.444;2023-12-28T11:30:04;10.20;;;7.00;;
73823;SDS011;62154;54.914;73.444;2023-12-28T11:32:38;16.52;;;9.63;;
73823;SDS011;62154;54.914;73.444;2023-12-28T11:35:13;15.80;;;8.68;;
73823;SDS011;62154;54.914;73.444;2023-12-28T11:37:42;19.27;;;11.15;;
73823;SDS011;62154;54.914;73.444;2023-12-28T11:40:16;13.45;;;8.70;;
73823;SDS011;62154;54.914;73.444;2023-12-28T11:42:49;34.75;;;17.95;;
73823;SDS011;62154;54.914;73.444;2023-12-28T11:45:21;24.27;;;12.98;;
73823;SDS011;62154;54.914;73.444;2023-12-28T11:48:02;13.98;;;7.85;;
73823;SDS011;62154;54.914;73.444;2023-12-28T11:50:30;34.55;;;18.08;;
73823;SDS011;62154;54.914;73.444;2023-12-28T11:52:58;27.48;;;15.57;;
73823;SDS011;62154;54.914;73.444;2023-12-28T11:55:26;72.95;;;31.67;;
73823;SDS011;62154;54.914;73.444;2023-12-28T11:57:53;76.10;;;29.05;;
73823;SDS011;62154;54.914;73.444;2023-12-28T12:00:23;119.47;;;39.17;;
73823;SDS011;62154;54.914;73.444;2023-12-28T12:02:52;76.18;;;32.75;;
73823;SDS011;62154;54.914;73.444;2023-12-28T12:05:19;68.93;;;29.85;;
73823;SDS011;62154;54.914;73.444;2023-12-28T12:07:49;73.35;;;33.65;;
73823;SDS011;62154;54.914;73.444;2023-12-28T12:10:16;20.50;;;10.60;;
73823;SDS011;62154;54.914;73.444;2023-12-28T12:12:45;36.42;;;19.75;;
73823;SDS011;62154;54.914;73.444;2023-12-28T12:15:13;16.27;;;9.25;;
73823;SDS011;62154;54.914;73.444;2023-12-28T12:17:40;11.15;;;6.03;;
73823;SDS011;62154;54.914;73.444;2023-12-28T12:20:14;8.32;;;4.88;;
73823;SDS011;62154;54.914;73.444;2023-12-28T12:22:42;10.80;;;5.95;;
73823;SDS011;62154;54.914;73.444;2023-12-28T12:25:09;10.13;;;5.33;;
73823;SDS011;62154;54.914;73.444;2023-12-28T12:27:39;9.98;;;4.95;;
73823;SDS011;62154;54.914;73.444;2023-12-28T12:30:10;13.35;;;7.25;;
73823;SDS011;62154;54.914;73.444;2023-12-28T12:32:38;14.85;;;7.78;;
73823;SDS011;62154;54.914;73.444;2023-12-28T12:35:09;8.18;;;4.43;;
73823;SDS011;62154;54.914;73.444;2023-12-28T12:37:38;10.02;;;5.20;;
73823;SDS011;62154;54.914;73.444;2023-12-28T12:40:05;9.75;;;5.10;;
73823;SDS011;62154;54.914;73.444;2023-12-28T12:42:53;8.32;;;3.65;;
73823;SDS011;62154;54.914;73.444;2023-12-28T12:45:21;7.30;;;4.22;;
73823;SDS011;62154;54.914;73.444;2023-12-28T12:47:51;7.07;;;4.05;;
73823;SDS011;62154;54.914;73.444;2023-12-28T12:50:18;28.08;;;14.65;;
73823;SDS011;62154;54.914;73.444;2023-12-28T12:52:46;9.00;;;5.03;;
73823;SDS011;62154;54.914;73.444;2023-12-28T12:55:28;10.45;;;5.30;;
73823;SDS011;62154;54.914;73.444;2023-12-28T12:57:57;5.95;;;3.75;;
73823;SDS011;62154;54.914;73.444;2023-12-28T13:00:24;7.70;;;3.13;;
73823;SDS011;62154;54.914;73.444;2023-12-28T13:03:08;7.40;;;3.42;;
73823;SDS011;62154;54.914;73.444;2023-12-28T13:05:36;7.78;;;4.68;;
73823;SDS011;62154;54.914;73.444;2023-12-28T13:08:04;6.20;;;3.80;;
73823;SDS011;62154;54.914;73.444;2023-12-28T13:10:31;8.38;;;4.43;;
73823;SDS011;62154;54.914;73.444;2023-12-28T13:12:59;9.13;;;4.50;;
73823;SDS011;62154;54.914;73.444;2023-12-28T13:15:27;7.60;;;3.80;;
73823;SDS011;62154;54.914;73.444;2023-12-28T13:17:55;8.63;;;4.32;;
73823;SDS011;62154;54.914;73.444;2023-12-28T13:20:22;11.27;;;5.53;;
73823;SDS011;62154;54.914;73.444;2023-12-28T13:22:50;10.05;;;4.80;;
73823;SDS011;62154;54.914;73.444;2023-12-28T13:25:17;15.35;;;5.28;;
73823;SDS011;62154;54.914;73.444;2023-12-28T13:27:44;9.75;;;4.05;;
73823;SDS011;62154;54.914;73.444;2023-12-28T13:30:12;6.80;;;3.53;;
73823;SDS011;62154;54.914;73.444;2023-12-28T13:32:40;9.93;;;4.63;;
73823;SDS011;62154;54.914;73.444;2023-12-28T13:35:10;13.07;;;5.85;;
73823;SDS011;62154;54.914;73.444;2023-12-28T13:37:37;39.17;;;12.63;;
73823;SDS011;62154;54.914;73.444;2023-12-28T13:40:05;22.52;;;8.70;;
73823;SDS011;62154;54.914;73.444;2023-12-28T13:42:33;9.35;;;4.50;;
73823;SDS011;62154;54.914;73.444;2023-12-28T13:45:12;7.65;;;4.20;;
73823;SDS011;62154;54.914;73.444;2023-12-28T13:47:50;7.97;;;3.45;;
73823;SDS011;62154;54.914;73.444;2023-12-28T13:50:20;5.70;;;3.08;;
73823;SDS011;62154;54.914;73.444;2023-12-28T13:52:51;12.52;;;5.55;;
73823;SDS011;62154;54.914;73.444;2023-12-28T13:55:18;11.93;;;4.55;;
73823;SDS011;62154;54.914;73.444;2023-12-28T13:57:45;7.82;;;3.80;;
73823;SDS011;62154;54.914;73.444;2023-12-28T14:00:28;6.75;;;3.88;;
73823;SDS011;62154;54.914;73.444;2023-12-28T14:02:56;7.22;;;3.45;;
73823;SDS011;62154;54.914;73.444;2023-12-28T14:05:25;5.45;;;2.85;;
73823;SDS011;62154;54.914;73.444;2023-12-28T14:07:52;7.07;;;3.35;;
73823;SDS011;62154;54.914;73.444;2023-12-28T14:10:20;6.53;;;3.15;;
73823;SDS011;62154;54.914;73.444;2023-12-28T14:12:47;13.50;;;4.60;;
73823;SDS011;62154;54.914;73.444;2023-12-28T14:15:15;6.82;;;3.08;;
73823;SDS011;62154;54.914;73.444;2023-12-28T14:17:43;23.60;;;8.57;;
73823;SDS011;62154;54.914;73.444;2023-12-28T14:20:10;19.17;;;8.27;;
73823;SDS011;62154;54.914;73.444;2023-12-28T14:22:38;56.60;;;19.98;;
73823;SDS011;62154;54.914;73.444;2023-12-28T14:25:06;22.80;;;8.13;;
73823;SDS011;62154;54.914;73.444;2023-12-28T14:27:34;28.10;;;12.15;;
73823;SDS011;62154;54.914;73.444;2023-12-28T14:30:02;8.32;;;4.50;;
73823;SDS011;62154;54.914;73.444;2023-12-28T14:32:32;17.65;;;8.77;;
73823;SDS011;62154;54.914;73.444;2023-12-28T14:34:59;6.00;;;3.67;;
73823;SDS011;62154;54.914;73.444;2023-12-28T14:37:27;7.45;;;4.18;;
73823;SDS011;62154;54.914;73.444;2023-12-28T14:39:54;6.13;;;3.42;;